Time;durP1;ratioP1;P1;durP2;ratioP2;P2;SDS_P1;SDS_P2;PMS_P1;PMS_P2;Temp;Humidity;BMP_temperature;BMP_pressure;BME280_temperature;BME280_humidity;BME280_pressure;Samples;Min_cycle;Max_cycle;Signal;HPM_P1;HPM_P2
2021/05/25 00:01:13;;;;;;;;;;;15.70;99.90;;;;;;2088964;28;1321;-65
2021/05/25 00:02:32;;;;;;;;;;;15.70;99.90;;;;;;2089226;28;1902;-65
2021/05/25 00:03:51;;;;;;;;;;;15.60;99.90;;;;;;2080468;28;784;-64
2021/05/25 00:05:12;;;;;;;;;;;15.60;99.90;;;;;;2079444;28;1731;-65
2021/05/25 00:06:31;;;;;;;;;;;15.60;99.90;;;;;;2090317;28;1993;-65
2021/05/25 00:07:50;;;;;;;;;;;15.60;99.90;;;;;;2098893;28;892;-64
2021/05/25 00:09:10;;;;;;;;;;;15.70;99.90;;;;;;2089146;28;1056;-65
2021/05/25 00:10:30;;;;;;;;;;;15.60;99.90;;;;;;2085638;28;761;-64
2021/05/25 00:11:49;;;;;;;;;;;15.60;99.90;;;;;;2082756;28;792;-65
2021/05/25 00:13:09;;;;;;;;;;;15.60;99.90;;;;;;2090852;28;747;-64
2021/05/25 00:14:29;;;;;;;;;;;15.60;99.90;;;;;;2096464;28;794;-65
2021/05/25 00:15:52;;;;;;;;;;;15.60;99.90;;;;;;2097108;28;731;-64
2021/05/25 00:17:11;;;;;;;;;;;15.60;99.90;;;;;;2089104;28;1812;-64
2021/05/25 00:18:31;;;;;;;;;;;15.60;99.90;;;;;;2088549;28;942;-65
2021/05/25 00:19:50;;;;;;;;;;;15.60;99.90;;;;;;2085274;28;1040;-64
2021/05/25 00:21:09;;;;;;;;;;;15.60;99.90;;;;;;2089037;28;1403;-65
2021/05/25 00:22:28;;;;;;;;;;;15.60;99.90;;;;;;2079462;28;1910;-65
2021/05/25 00:23:47;;;;;;;;;;;15.60;99.90;;;;;;2085506;28;713;-65
2021/05/25 00:25:08;;;;;;;;;;;15.60;99.90;;;;;;2080575;28;734;-65
2021/05/25 00:26:27;;;;;;;;;;;15.60;99.90;;;;;;2088980;28;1704;-65
2021/05/25 00:27:46;;;;;;;;;;;15.60;99.90;;;;;;2088713;28;760;-64
2021/05/25 00:29:06;;;;;;;;;;;15.60;99.90;;;;;;2085385;28;920;-65
2021/05/25 00:30:25;;;;;;;;;;;15.60;99.90;;;;;;2090658;28;755;-64
2021/05/25 00:31:44;;;;;;;;;;;15.70;99.90;;;;;;2093619;28;721;-64
2021/05/25 00:33:04;;;;;;;;;;;15.60;99.90;;;;;;2097413;28;721;-65
2021/05/25 00:34:23;;;;;;;;;;;15.60;99.90;;;;;;2088001;28;706;-65
2021/05/25 00:35:42;;;;;;;;;;;15.60;99.90;;;;;;2098273;28;1746;-65
2021/05/25 00:37:01;;;;;;;;;;;15.70;99.90;;;;;;2100274;28;888;-64
2021/05/25 00:38:20;;;;;;;;;;;15.60;99.90;;;;;;2099762;28;1026;-65
2021/05/25 00:39:39;;;;;;;;;;;15.60;99.90;;;;;;2090600;28;1532;-65
2021/05/25 00:40:58;;;;;;;;;;;15.60;99.90;;;;;;2088941;28;1360;-65
2021/05/25 00:42:18;;;;;;;;;;;15.60;99.90;;;;;;2089230;28;748;-65
2021/05/25 00:43:37;;;;;;;;;;;15.50;99.90;;;;;;2080582;28;789;-65
2021/05/25 00:44:56;;;;;;;;;;;15.60;99.90;;;;;;2084981;28;741;-65
2021/05/25 00:46:16;;;;;;;;;;;15.60;99.90;;;;;;2093639;28;1984;-65
2021/05/25 00:47:35;;;;;;;;;;;15.60;99.90;;;;;;2097325;28;786;-65
2021/05/25 00:48:55;;;;;;;;;;;15.60;99.90;;;;;;2103713;28;765;-65
2021/05/25 00:50:18;;;;;;;;;;;15.60;99.90;;;;;;2090056;28;818;-65
2021/05/25 00:51:39;;;;;;;;;;;15.60;99.90;;;;;;2093130;28;768;-67
2021/05/25 00:52:59;;;;;;;;;;;15.50;99.90;;;;;;2095565;28;739;-65
2021/05/25 00:54:18;;;;;;;;;;;15.50;99.90;;;;;;2103109;28;743;-65
2021/05/25 00:55:38;;;;;;;;;;;15.50;99.90;;;;;;2101397;28;1320;-64
2021/05/25 00:56:58;;;;;;;;;;;15.60;99.90;;;;;;2090200;28;764;-65
2021/05/25 00:58:17;;;;;;;;;;;15.60;99.90;;;;;;2086804;28;814;-64
2021/05/25 00:59:36;;;;;;;;;;;15.50;99.90;;;;;;2078620;28;1692;-65
2021/05/25 01:00:56;;;;;;;;;;;15.50;99.90;;;;;;2083870;28;1353;-64
2021/05/25 01:02:15;;;;;;;;;;;15.50;99.90;;;;;;2081923;28;736;-65
2021/05/25 01:03:34;;;;;;;;;;;15.50;99.90;;;;;;2083735;28;713;-64
2021/05/25 01:04:53;;;;;;;;;;;15.50;99.90;;;;;;2086013;28;976;-64
2021/05/25 01:06:13;;;;;;;;;;;15.50;99.90;;;;;;2085790;28;1720;-64
2021/05/25 01:07:32;;;;;;;;;;;15.40;99.90;;;;;;2097225;28;949;-65
2021/05/25 01:08:51;;;;;;;;;;;15.50;99.90;;;;;;2087535;28;1031;-65
2021/05/25 01:10:11;;;;;;;;;;;15.50;99.90;;;;;;2103478;28;763;-64
2021/05/25 01:11:34;;;;;;;;;;;15.50;99.90;;;;;;2106755;28;1430;-64
2021/05/25 01:12:59;;;;;;;;;;;15.60;99.90;;;;;;2094671;28;1539;-65
2021/05/25 01:14:19;;;;;;;;;;;15.50;99.90;;;;;;2090454;28;1541;-64
2021/05/25 01:15:39;;;;;;;;;;;15.50;99.90;;;;;;2087711;28;755;-65
2021/05/25 01:16:58;;;;;;;;;;;15.50;99.90;;;;;;2081594;28;1435;-64
2021/05/25 01:18:18;;;;;;;;;;;15.50;99.90;;;;;;2083318;28;969;-65
2021/05/25 01:19:37;;;;;;;;;;;15.50;99.90;;;;;;2078515;28;718;-65
2021/05/25 01:20:56;;;;;;;;;;;15.40;99.90;;;;;;2086571;28;1367;-64
2021/05/25 01:22:15;;;;;;;;;;;15.50;99.90;;;;;;2089649;28;923;-64
2021/05/25 01:23:35;;;;;;;;;;;15.50;99.90;;;;;;2097975;28;1079;-65
2021/05/25 01:24:54;;;;;;;;;;;15.50;99.90;;;;;;2092383;28;1926;-65
2021/05/25 01:26:15;;;;;;;;;;;15.40;99.90;;;;;;2087827;28;1469;-65
2021/05/25 01:27:35;;;;;;;;;;;15.50;99.90;;;;;;2095281;28;734;-65
2021/05/25 01:28:54;;;;;;;;;;;15.50;99.90;;;;;;2086788;28;738;-65
2021/05/25 01:30:14;;;;;;;;;;;15.50;99.90;;;;;;2095586;28;730;-65
2021/05/25 01:31:33;;;;;;;;;;;15.40;99.90;;;;;;2098284;28;785;-65
2021/05/25 01:32:53;;;;;;;;;;;15.50;99.90;;;;;;2094880;28;728;-65
2021/05/25 01:34:12;;;;;;;;;;;15.50;99.90;;;;;;2094234;28;707;-65
2021/05/25 01:35:31;;;;;;;;;;;15.50;99.90;;;;;;2098467;28;774;-64
2021/05/25 01:36:51;;;;;;;;;;;15.40;99.90;;;;;;2101852;28;1689;-64
2021/05/25 01:38:10;;;;;;;;;;;15.40;99.90;;;;;;2098711;28;1178;-66
2021/05/25 01:39:30;;;;;;;;;;;15.40;99.90;;;;;;2102239;28;1000;-65
2021/05/25 01:40:50;;;;;;;;;;;15.50;99.90;;;;;;2103337;28;1361;-66
2021/05/25 01:42:09;;;;;;;;;;;15.40;99.90;;;;;;2106640;28;775;-65
2021/05/25 01:43:28;;;;;;;;;;;15.40;99.90;;;;;;2098400;28;1779;-64
2021/05/25 01:44:48;;;;;;;;;;;15.40;99.90;;;;;;2097764;28;742;-65
2021/05/25 01:46:07;;;;;;;;;;;15.40;99.90;;;;;;2098639;28;1770;-64
2021/05/25 01:47:26;;;;;;;;;;;15.40;99.90;;;;;;2090308;28;752;-64
2021/05/25 01:48:47;;;;;;;;;;;15.40;99.90;;;;;;2089870;28;743;-65
2021/05/25 01:50:14;;;;;;;;;;;15.40;99.90;;;;;;2086348;28;761;-65
2021/05/25 01:51:33;;;;;;;;;;;15.40;99.90;;;;;;2079138;28;730;-64
2021/05/25 01:53:02;;;;;;;;;;;15.40;99.90;;;;;;2078422;28;809;-65
2021/05/25 01:54:21;;;;;;;;;;;15.40;99.90;;;;;;2087706;28;752;-65
2021/05/25 01:55:41;;;;;;;;;;;15.40;99.90;;;;;;2089700;28;847;-65
2021/05/25 01:57:01;;;;;;;;;;;15.40;99.90;;;;;;2095196;28;1598;-64
2021/05/25 01:58:27;;;;;;;;;;;15.40;99.90;;;;;;2089599;28;783;-64
2021/05/25 01:59:46;;;;;;;;;;;15.40;99.90;;;;;;2089544;28;755;-64
2021/05/25 02:01:06;;;;;;;;;;;15.40;99.90;;;;;;2090244;28;1353;-64
2021/05/25 02:02:26;;;;;;;;;;;15.40;99.90;;;;;;2090244;28;787;-64
2021/05/25 02:03:45;;;;;;;;;;;15.40;99.90;;;;;;2090254;28;715;-65
2021/05/25 02:05:04;;;;;;;;;;;15.40;99.90;;;;;;2089350;28;742;-65
2021/05/25 02:06:24;;;;;;;;;;;15.40;99.90;;;;;;2090828;28;1879;-64
2021/05/25 02:07:49;;;;;;;;;;;15.30;99.90;;;;;;2100887;28;931;-64
2021/05/25 02:09:08;;;;;;;;;;;15.40;99.90;;;;;;2098756;28;1051;-64
2021/05/25 02:10:28;;;;;;;;;;;15.40;99.90;;;;;;2106688;28;945;-65
2021/05/25 02:11:48;;;;;;;;;;;15.40;99.90;;;;;;2095659;28;1484;-64
2021/05/25 02:13:14;;;;;;;;;;;15.40;99.90;;;;;;2094981;28;759;-65
2021/05/25 02:14:33;;;;;;;;;;;15.40;99.90;;;;;;2097972;28;764;-64
2021/05/25 02:15:56;;;;;;;;;;;15.40;99.90;;;;;;2089692;28;775;-64
2021/05/25 02:17:15;;;;;;;;;;;15.40;99.90;;;;;;2078537;28;800;-65
2021/05/25 02:18:35;;;;;;;;;;;15.40;99.90;;;;;;2091015;28;1035;-65
2021/05/25 02:19:54;;;;;;;;;;;15.40;99.90;;;;;;2089437;28;808;-64
2021/05/25 02:21:15;;;;;;;;;;;15.40;99.90;;;;;;2086174;28;1317;-64
2021/05/25 02:22:34;;;;;;;;;;;15.40;99.90;;;;;;2087923;28;1906;-65
2021/05/25 02:23:54;;;;;;;;;;;15.30;99.90;;;;;;2086081;28;785;-64
2021/05/25 02:25:13;;;;;;;;;;;15.30;99.90;;;;;;2086471;28;796;-64
2021/05/25 02:26:32;;;;;;;;;;;15.40;99.90;;;;;;2081338;28;1654;-64
2021/05/25 02:27:51;;;;;;;;;;;15.30;99.90;;;;;;2086253;28;743;-65
2021/05/25 02:29:11;;;;;;;;;;;15.40;99.90;;;;;;2089552;28;788;-64
2021/05/25 02:30:30;;;;;;;;;;;15.40;99.90;;;;;;2081252;28;745;-64
2021/05/25 02:31:49;;;;;;;;;;;15.30;99.90;;;;;;2086442;28;749;-64
2021/05/25 02:33:09;;;;;;;;;;;15.40;99.90;;;;;;2089641;28;1988;-64
2021/05/25 02:34:28;;;;;;;;;;;15.30;99.90;;;;;;2097328;28;732;-64
2021/05/25 02:35:49;;;;;;;;;;;15.30;99.90;;;;;;2098066;28;714;-64
2021/05/25 02:37:08;;;;;;;;;;;15.30;99.90;;;;;;2101763;28;1931;-64
2021/05/25 02:38:28;;;;;;;;;;;15.30;99.90;;;;;;2098709;28;1046;-65
2021/05/25 02:39:47;;;;;;;;;;;15.30;99.90;;;;;;2097620;28;753;-64
2021/05/25 02:41:06;;;;;;;;;;;15.30;99.90;;;;;;2097638;28;1367;-64
2021/05/25 02:42:25;;;;;;;;;;;15.30;99.90;;;;;;2097284;28;738;-64
2021/05/25 02:43:45;;;;;;;;;;;15.30;99.90;;;;;;2093501;28;1750;-65
2021/05/25 02:45:05;;;;;;;;;;;15.30;99.90;;;;;;2094280;28;768;-65
2021/05/25 02:46:24;;;;;;;;;;;15.30;99.90;;;;;;2094143;28;725;-66
2021/05/25 02:47:43;;;;;;;;;;;15.30;99.90;;;;;;2097747;28;787;-64
2021/05/25 02:49:02;;;;;;;;;;;15.30;99.90;;;;;;2089288;28;964;-65
2021/05/25 02:50:22;;;;;;;;;;;15.30;99.90;;;;;;2099218;28;1568;-64
2021/05/25 02:51:41;;;;;;;;;;;15.30;99.90;;;;;;2097680;28;759;-65
2021/05/25 02:53:00;;;;;;;;;;;15.30;99.90;;;;;;2097498;28;725;-64
2021/05/25 02:54:20;;;;;;;;;;;15.20;99.90;;;;;;2093561;28;737;-64
2021/05/25 02:55:40;;;;;;;;;;;15.30;99.90;;;;;;2097949;28;762;-64
2021/05/25 02:56:59;;;;;;;;;;;15.30;99.90;;;;;;2097357;28;772;-64
2021/05/25 02:58:18;;;;;;;;;;;15.20;99.90;;;;;;2097721;28;745;-65
2021/05/25 02:59:37;;;;;;;;;;;15.30;99.90;;;;;;2079781;28;892;-65
2021/05/25 03:00:57;;;;;;;;;;;15.30;99.90;;;;;;2086343;28;1400;-65
2021/05/25 03:02:16;;;;;;;;;;;15.30;99.90;;;;;;2092989;28;1716;-65
2021/05/25 03:03:35;;;;;;;;;;;15.30;99.90;;;;;;2097410;28;800;-65
2021/05/25 03:04:54;;;;;;;;;;;15.20;99.90;;;;;;2093439;28;749;-65
2021/05/25 03:06:14;;;;;;;;;;;15.30;99.90;;;;;;2097720;28;712;-65
2021/05/25 03:07:33;;;;;;;;;;;15.20;99.90;;;;;;2096154;28;1011;-65
2021/05/25 03:08:52;;;;;;;;;;;15.30;99.90;;;;;;2095205;28;880;-65
2021/05/25 03:10:12;;;;;;;;;;;15.30;99.90;;;;;;2109061;28;766;-65
2021/05/25 03:11:31;;;;;;;;;;;15.30;99.90;;;;;;2098027;28;2024;-66
2021/05/25 03:12:51;;;;;;;;;;;15.30;99.90;;;;;;2097414;28;728;-65
2021/05/25 03:14:10;;;;;;;;;;;15.20;99.90;;;;;;2092474;28;1398;-65
2021/05/25 03:15:31;;;;;;;;;;;15.20;99.90;;;;;;2088885;28;1455;-66
2021/05/25 03:16:51;;;;;;;;;;;15.20;99.90;;;;;;2094035;28;1616;-65
2021/05/25 03:18:10;;;;;;;;;;;15.30;99.90;;;;;;2091081;28;1227;-65
2021/05/25 03:19:29;;;;;;;;;;;15.20;99.90;;;;;;2086934;28;1364;-64
2021/05/25 03:20:49;;;;;;;;;;;15.20;99.90;;;;;;2089732;28;1376;-65
2021/05/25 03:22:08;;;;;;;;;;;15.20;99.90;;;;;;2090559;28;1311;-65
2021/05/25 03:23:27;;;;;;;;;;;15.20;99.90;;;;;;2091551;28;1902;-65
2021/05/25 03:24:47;;;;;;;;;;;15.20;99.90;;;;;;2093243;28;1439;-64
2021/05/25 03:26:06;;;;;;;;;;;15.20;99.90;;;;;;2087678;28;1793;-65
2021/05/25 03:27:25;;;;;;;;;;;15.20;99.90;;;;;;2091164;28;1386;-64
2021/05/25 03:28:44;;;;;;;;;;;15.20;99.90;;;;;;2086712;28;1380;-65
2021/05/25 03:30:08;;;;;;;;;;;15.20;99.90;;;;;;2086519;28;1274;-64
2021/05/25 03:31:27;;;;;;;;;;;15.20;99.90;;;;;;2086726;28;1464;-64
2021/05/25 03:32:47;;;;;;;;;;;15.20;99.90;;;;;;2080099;28;1347;-64
2021/05/25 03:34:06;;;;;;;;;;;15.20;99.90;;;;;;2089914;28;1316;-64
2021/05/25 03:35:25;;;;;;;;;;;15.20;99.90;;;;;;2089374;28;1221;-64
2021/05/25 03:36:44;;;;;;;;;;;15.20;99.90;;;;;;2085483;28;1448;-68
2021/05/25 03:38:04;;;;;;;;;;;15.30;99.90;;;;;;2089862;28;1406;-64
2021/05/25 03:39:23;;;;;;;;;;;15.20;97.40;;;;;;2089614;28;1159;-64
2021/05/25 03:40:42;;;;;;;;;;;15.00;94.70;;;;;;2089863;28;1399;-66
2021/05/25 03:42:02;;;;;;;;;;;14.90;91.00;;;;;;2089976;28;1521;-66
2021/05/25 03:43:21;;;;;;;;;;;14.70;90.10;;;;;;2089003;28;1950;-64
2021/05/25 03:44:40;;;;;;;;;;;14.70;91.00;;;;;;2089590;28;1190;-65
2021/05/25 03:45:59;;;;;;;;;;;14.60;90.50;;;;;;2073632;28;1404;-63
2021/05/25 03:47:20;;;;;;;;;;;14.60;90.00;;;;;;2085042;28;1778;-64
2021/05/25 03:48:39;;;;;;;;;;;14.60;90.20;;;;;;2088585;28;1138;-64
2021/05/25 03:50:07;;;;;;;;;;;14.70;91.30;;;;;;2089423;28;1436;-64
2021/05/25 03:51:27;;;;;;;;;;;14.70;90.90;;;;;;2089797;28;1483;-64
2021/05/25 03:52:47;;;;;;;;;;;14.80;90.00;;;;;;2093998;28;1251;-64
2021/05/25 03:54:14;;;;;;;;;;;14.80;90.00;;;;;;2091815;28;1418;-64
2021/05/25 03:55:44;;;;;;;;;;;14.80;89.30;;;;;;2082622;28;1315;-64
2021/05/25 04:00:02;;;;;;;;;;;14.90;89.20;;;;;;2092094;28;1419;-64
2021/05/25 04:01:23;;;;;;;;;;;14.90;90.20;;;;;;2096644;28;1444;-64
2021/05/25 04:02:41;;;;;;;;;;;14.90;90.20;;;;;;2090051;28;1906;-64
2021/05/25 04:04:01;;;;;;;;;;;15.00;90.80;;;;;;2088716;28;1701;-64
2021/05/25 04:05:20;;;;;;;;;;;15.00;91.00;;;;;;2090307;28;1185;-64
2021/05/25 04:06:39;;;;;;;;;;;15.00;91.30;;;;;;2090382;28;1221;-64
2021/05/25 04:07:58;;;;;;;;;;;15.00;92.70;;;;;;2090429;28;1234;-64
2021/05/25 04:09:17;;;;;;;;;;;15.00;92.30;;;;;;2091598;28;1229;-64
2021/05/25 04:10:37;;;;;;;;;;;15.00;92.80;;;;;;2092420;28;1510;-64
2021/05/25 04:11:57;;;;;;;;;;;15.00;92.70;;;;;;2083567;28;1399;-64
2021/05/25 04:13:17;;;;;;;;;;;15.00;92.40;;;;;;2078944;28;1196;-64
2021/05/25 04:14:36;;;;;;;;;;;14.90;92.80;;;;;;2075614;28;1642;-64
2021/05/25 04:15:56;;;;;;;;;;;15.00;93.00;;;;;;2087302;28;1161;-63
2021/05/25 04:17:15;;;;;;;;;;;15.00;93.00;;;;;;2092576;28;1223;-63
2021/05/25 04:18:34;;;;;;;;;;;15.00;93.20;;;;;;2090757;28;1119;-64
2021/05/25 04:19:53;;;;;;;;;;;15.00;93.20;;;;;;2090077;28;1123;-64
2021/05/25 04:21:12;;;;;;;;;;;15.00;93.40;;;;;;2090192;28;1422;-64
2021/05/25 04:22:31;;;;;;;;;;;15.00;93.80;;;;;;2086068;28;1180;-63
2021/05/25 04:23:51;;;;;;;;;;;15.00;93.50;;;;;;2089668;28;1021;-64
2021/05/25 04:25:10;;;;;;;;;;;15.00;93.90;;;;;;2093552;28;960;-64
2021/05/25 04:26:29;;;;;;;;;;;15.00;94.00;;;;;;2091630;28;1132;-64
2021/05/25 04:27:48;;;;;;;;;;;15.00;93.90;;;;;;2082216;28;1533;-64
2021/05/25 04:29:08;;;;;;;;;;;15.00;94.00;;;;;;2088420;28;1696;-64
2021/05/25 04:30:27;;;;;;;;;;;15.00;94.00;;;;;;2089797;28;1043;-66
2021/05/25 04:31:47;;;;;;;;;;;15.00;94.00;;;;;;2090869;28;1022;-69
2021/05/25 04:33:06;;;;;;;;;;;15.00;94.30;;;;;;2088121;28;1255;-66
2021/05/25 04:34:25;;;;;;;;;;;15.00;94.50;;;;;;2086306;28;1653;-69
2021/05/25 04:35:45;;;;;;;;;;;15.00;94.60;;;;;;2083132;28;1131;-65
2021/05/25 04:37:04;;;;;;;;;;;15.00;94.80;;;;;;2080076;28;1067;-66
2021/05/25 04:38:23;;;;;;;;;;;15.00;95.00;;;;;;2088652;28;1462;-67
2021/05/25 04:39:42;;;;;;;;;;;15.00;94.60;;;;;;2092540;28;1084;-67
2021/05/25 04:41:02;;;;;;;;;;;14.90;91.30;;;;;;2090887;28;1711;-67
2021/05/25 04:42:21;;;;;;;;;;;14.70;89.10;;;;;;2092863;28;1280;-65
2021/05/25 04:43:40;;;;;;;;;;;14.60;88.30;;;;;;2093913;28;1123;-67
2021/05/25 04:44:59;;;;;;;;;;;14.60;89.10;;;;;;2094044;28;1380;-66
2021/05/25 04:46:19;;;;;;;;;;;14.60;90.60;;;;;;2083738;28;1202;-65
2021/05/25 04:47:38;;;;;;;;;;;14.70;90.00;;;;;;2088847;28;1101;-67
2021/05/25 04:48:57;;;;;;;;;;;14.70;90.00;;;;;;2093307;28;1291;-66
2021/05/25 04:50:18;;;;;;;;;;;14.70;90.00;;;;;;2089969;28;1150;-66
2021/05/25 04:51:37;;;;;;;;;;;14.80;88.80;;;;;;2091771;28;1158;-66
2021/05/25 04:52:56;;;;;;;;;;;14.80;88.80;;;;;;2088908;28;1316;-68
2021/05/25 04:54:15;;;;;;;;;;;14.80;88.70;;;;;;2090208;28;1529;-67
2021/05/25 04:55:35;;;;;;;;;;;14.80;88.70;;;;;;2084570;28;1104;-66
2021/05/25 04:56:55;;;;;;;;;;;14.80;89.70;;;;;;2087410;28;1311;-66
2021/05/25 04:58:14;;;;;;;;;;;14.80;89.80;;;;;;2094855;28;1477;-65
2021/05/25 04:59:33;;;;;;;;;;;14.80;90.00;;;;;;2095219;28;1238;-66
2021/05/25 05:00:52;;;;;;;;;;;14.80;90.50;;;;;;2092292;28;1367;-66
2021/05/25 05:02:12;;;;;;;;;;;14.80;90.40;;;;;;2091794;28;1198;-69
2021/05/25 05:03:31;;;;;;;;;;;14.80;90.80;;;;;;2092286;28;1906;-66
2021/05/25 05:04:50;;;;;;;;;;;14.80;90.70;;;;;;2093322;28;1140;-69
2021/05/25 05:06:09;;;;;;;;;;;14.90;90.80;;;;;;2089701;28;1384;-66
2021/05/25 05:07:29;;;;;;;;;;;14.80;91.10;;;;;;2089396;28;1401;-69
2021/05/25 05:08:48;;;;;;;;;;;14.90;91.40;;;;;;2084163;28;1701;-69
2021/05/25 05:10:07;;;;;;;;;;;14.80;91.50;;;;;;2088576;28;956;-67
2021/05/25 05:11:26;;;;;;;;;;;14.90;91.50;;;;;;2088268;28;1460;-67
2021/05/25 05:12:46;;;;;;;;;;;14.90;91.40;;;;;;2094102;28;1290;-67
2021/05/25 05:14:05;;;;;;;;;;;14.80;91.90;;;;;;2092057;28;1249;-68
2021/05/25 05:15:24;;;;;;;;;;;14.80;92.00;;;;;;2088660;28;1154;-66
2021/05/25 05:16:43;;;;;;;;;;;14.90;91.80;;;;;;2090206;28;1678;-66
2021/05/25 05:18:02;;;;;;;;;;;14.90;92.10;;;;;;2099954;28;1269;-70
2021/05/25 05:19:22;;;;;;;;;;;14.80;92.30;;;;;;2093555;28;1485;-66
2021/05/25 05:20:41;;;;;;;;;;;14.90;92.30;;;;;;2091445;28;1384;-68
2021/05/25 05:22:00;;;;;;;;;;;14.90;92.40;;;;;;2094581;28;1699;-66
2021/05/25 05:23:19;;;;;;;;;;;14.80;92.60;;;;;;2093659;28;1965;-67
2021/05/25 05:24:39;;;;;;;;;;;14.80;93.50;;;;;;2078873;28;1429;-65
2021/05/25 05:25:58;;;;;;;;;;;14.90;93.80;;;;;;2088295;28;1107;-66
2021/05/25 05:27:17;;;;;;;;;;;14.90;93.80;;;;;;2092432;28;1380;-66
2021/05/25 05:28:37;;;;;;;;;;;14.90;92.10;;;;;;2090411;28;968;-68
2021/05/25 05:29:56;;;;;;;;;;;14.80;92.10;;;;;;2083671;28;1222;-66
2021/05/25 05:31:15;;;;;;;;;;;14.70;92.70;;;;;;2088904;28;1432;-68
2021/05/25 05:32:34;;;;;;;;;;;14.70;92.50;;;;;;2092310;28;1158;-66
2021/05/25 05:33:53;;;;;;;;;;;14.70;93.00;;;;;;2091058;28;1159;-66
2021/05/25 05:35:13;;;;;;;;;;;14.70;92.20;;;;;;2092684;28;1388;-66
2021/05/25 05:36:32;;;;;;;;;;;14.70;91.40;;;;;;2091209;28;964;-66
2021/05/25 05:37:51;;;;;;;;;;;14.70;91.50;;;;;;2090393;28;1135;-66
2021/05/25 05:39:10;;;;;;;;;;;14.80;91.40;;;;;;2090405;28;1009;-66
2021/05/25 05:40:30;;;;;;;;;;;14.70;91.40;;;;;;2090976;28;1248;-66
2021/05/25 05:41:49;;;;;;;;;;;14.80;91.60;;;;;;2090558;28;1228;-67
2021/05/25 05:43:09;;;;;;;;;;;14.80;91.70;;;;;;2089845;28;2009;-68
2021/05/25 05:44:28;;;;;;;;;;;14.80;91.80;;;;;;2090159;28;1111;-69
2021/05/25 05:45:47;;;;;;;;;;;14.80;91.90;;;;;;2090598;28;1218;-68
2021/05/25 05:47:06;;;;;;;;;;;14.80;92.20;;;;;;2089782;28;1362;-66
2021/05/25 05:48:26;;;;;;;;;;;14.80;92.30;;;;;;2091156;28;1201;-66
2021/05/25 05:49:45;;;;;;;;;;;14.80;92.30;;;;;;2082659;28;1412;-66
2021/05/25 05:51:05;;;;;;;;;;;14.80;92.30;;;;;;2087696;28;1570;-66
2021/05/25 05:52:24;;;;;;;;;;;14.80;92.50;;;;;;2091963;28;1039;-65
2021/05/25 05:53:43;;;;;;;;;;;14.80;92.60;;;;;;2091576;28;1148;-67
2021/05/25 05:55:03;;;;;;;;;;;14.80;92.70;;;;;;2091637;28;1007;-66
2021/05/25 05:56:23;;;;;;;;;;;14.80;92.70;;;;;;2090074;28;1400;-66
2021/05/25 05:57:42;;;;;;;;;;;14.80;92.90;;;;;;2091663;28;1560;-67
2021/05/25 05:59:02;;;;;;;;;;;14.80;92.90;;;;;;2088655;28;1098;-65
2021/05/25 06:00:21;;;;;;;;;;;14.80;93.10;;;;;;2092079;28;1021;-65
2021/05/25 06:01:41;;;;;;;;;;;14.80;93.00;;;;;;2091008;28;938;-65
2021/05/25 06:03:00;;;;;;;;;;;14.80;93.20;;;;;;2092783;28;1902;-65
2021/05/25 06:04:19;;;;;;;;;;;14.80;93.30;;;;;;2091274;28;1224;-67
2021/05/25 06:05:38;;;;;;;;;;;14.80;93.40;;;;;;2091918;28;1369;-65
2021/05/25 06:06:57;;;;;;;;;;;14.80;93.80;;;;;;2092698;28;1466;-69
2021/05/25 06:08:17;;;;;;;;;;;14.80;93.60;;;;;;2092274;28;1087;-66
2021/05/25 06:09:37;;;;;;;;;;;14.90;93.70;;;;;;2092722;28;1021;-65
2021/05/25 06:10:57;;;;;;;;;;;14.90;93.80;;;;;;2091675;28;1450;-67
2021/05/25 06:12:16;;;;;;;;;;;14.90;93.70;;;;;;2092364;28;1215;-66
2021/05/25 06:13:35;;;;;;;;;;;15.00;93.80;;;;;;2092250;28;1242;-66
2021/05/25 06:14:54;;;;;;;;;;;15.00;93.70;;;;;;2091344;28;1389;-66
2021/05/25 06:16:14;;;;;;;;;;;15.00;93.50;;;;;;2083526;28;1534;-67
2021/05/25 06:17:33;;;;;;;;;;;15.10;93.50;;;;;;2088284;28;1316;-67
2021/05/25 06:18:52;;;;;;;;;;;15.10;93.40;;;;;;2091309;28;1322;-66
2021/05/25 06:20:12;;;;;;;;;;;15.20;93.20;;;;;;2092642;28;1534;-66
2021/05/25 06:21:31;;;;;;;;;;;15.30;93.10;;;;;;2089437;28;1450;-69
2021/05/25 06:22:50;;;;;;;;;;;15.30;93.30;;;;;;2086726;28;2274;-66
2021/05/25 06:24:09;;;;;;;;;;;15.40;93.00;;;;;;2091428;28;1421;-67
2021/05/25 06:25:28;;;;;;;;;;;15.40;92.50;;;;;;2091719;28;1320;-67
2021/05/25 06:26:48;;;;;;;;;;;15.50;92.40;;;;;;2090717;28;1316;-66
2021/05/25 06:28:07;;;;;;;;;;;15.50;92.20;;;;;;2091510;28;1219;-67
2021/05/25 06:29:26;;;;;;;;;;;15.60;92.00;;;;;;2088115;28;1148;-67
2021/05/25 06:30:46;;;;;;;;;;;15.60;91.80;;;;;;2092048;28;1661;-66
2021/05/25 06:32:05;;;;;;;;;;;15.80;91.70;;;;;;2092044;28;1218;-66
2021/05/25 06:33:24;;;;;;;;;;;15.80;91.30;;;;;;2092116;28;1408;-67
2021/05/25 06:34:43;;;;;;;;;;;15.80;91.20;;;;;;2082265;28;994;-69
2021/05/25 06:36:02;;;;;;;;;;;15.90;90.80;;;;;;2089254;28;1126;-66
2021/05/25 06:37:21;;;;;;;;;;;16.00;90.80;;;;;;2091189;28;1393;-67
2021/05/25 06:38:41;;;;;;;;;;;16.10;90.40;;;;;;2095633;28;1252;-66
2021/05/25 06:40:00;;;;;;;;;;;16.10;90.20;;;;;;2100990;28;1789;-67
2021/05/25 06:41:19;;;;;;;;;;;16.20;90.40;;;;;;2092379;28;1456;-68
2021/05/25 06:42:38;;;;;;;;;;;16.30;89.70;;;;;;2088196;28;1303;-67
2021/05/25 06:43:58;;;;;;;;;;;16.40;89.50;;;;;;2078315;28;1240;-66
2021/05/25 06:45:17;;;;;;;;;;;16.40;88.40;;;;;;2086160;28;1137;-66
2021/05/25 06:46:36;;;;;;;;;;;16.50;88.40;;;;;;2093522;28;1149;-67
2021/05/25 06:47:55;;;;;;;;;;;16.70;87.50;;;;;;2091190;28;1308;-65
2021/05/25 06:49:15;;;;;;;;;;;16.70;87.10;;;;;;2092471;28;1221;-65
2021/05/25 06:50:34;;;;;;;;;;;16.70;86.50;;;;;;2092232;28;1055;-70
2021/05/25 06:51:53;;;;;;;;;;;16.80;85.80;;;;;;2083107;28;1377;-66
2021/05/25 06:53:12;;;;;;;;;;;16.90;85.70;;;;;;2079481;28;1070;-68
2021/05/25 06:54:32;;;;;;;;;;;16.90;85.70;;;;;;2085591;28;1968;-65
2021/05/25 06:55:51;;;;;;;;;;;16.90;86.10;;;;;;2091945;28;1404;-66
2021/05/25 06:57:11;;;;;;;;;;;16.70;85.40;;;;;;2090748;28;1162;-66
2021/05/25 06:58:30;;;;;;;;;;;16.60;88.30;;;;;;2083667;28;1479;-66
2021/05/25 06:59:49;;;;;;;;;;;16.70;89.40;;;;;;2079524;28;961;-66
2021/05/25 07:01:08;;;;;;;;;;;16.70;89.00;;;;;;2091024;28;1427;-67
2021/05/25 07:02:27;;;;;;;;;;;16.80;87.70;;;;;;2083176;28;1189;-66
2021/05/25 07:03:47;;;;;;;;;;;16.80;87.00;;;;;;2088306;28;1261;-68
2021/05/25 07:05:06;;;;;;;;;;;16.90;87.00;;;;;;2098031;28;1403;-67
2021/05/25 07:06:26;;;;;;;;;;;16.90;87.20;;;;;;2089655;28;1423;-66
2021/05/25 07:07:45;;;;;;;;;;;16.90;87.10;;;;;;2080356;28;1365;-67
2021/05/25 07:09:05;;;;;;;;;;;16.90;87.30;;;;;;2086390;28;1242;-67
2021/05/25 07:10:24;;;;;;;;;;;17.00;87.80;;;;;;2091054;28;1686;-67
2021/05/25 07:11:43;;;;;;;;;;;17.00;87.70;;;;;;2089281;28;1023;-67
2021/05/25 07:13:03;;;;;;;;;;;17.00;87.90;;;;;;2086299;28;1184;-67
2021/05/25 07:14:22;;;;;;;;;;;17.00;88.10;;;;;;2089158;28;1176;-68
2021/05/25 07:15:41;;;;;;;;;;;17.00;88.30;;;;;;2090466;28;1231;-66
2021/05/25 07:17:00;;;;;;;;;;;17.10;89.20;;;;;;2093387;28;1664;-67
2021/05/25 07:18:19;;;;;;;;;;;17.10;88.50;;;;;;2091907;28;1246;-65
2021/05/25 07:19:39;;;;;;;;;;;17.10;88.60;;;;;;2089855;28;1186;-67
2021/05/25 07:20:59;;;;;;;;;;;17.10;88.50;;;;;;2081241;28;1401;-68
2021/05/25 07:22:18;;;;;;;;;;;17.20;88.50;;;;;;2086066;28;1264;-66
2021/05/25 07:23:37;;;;;;;;;;;17.20;88.60;;;;;;2095054;28;1906;-66
2021/05/25 07:24:57;;;;;;;;;;;17.20;88.60;;;;;;2090466;28;1014;-66
2021/05/25 07:26:16;;;;;;;;;;;17.20;88.80;;;;;;2090979;28;1455;-66
2021/05/25 07:27:36;;;;;;;;;;;17.20;89.00;;;;;;2082256;28;1405;-68
2021/05/25 07:28:55;;;;;;;;;;;17.20;88.90;;;;;;2087653;28;1449;-67
2021/05/25 07:30:14;;;;;;;;;;;17.20;89.30;;;;;;2094590;28;1417;-65
2021/05/25 07:31:33;;;;;;;;;;;17.20;89.60;;;;;;2097415;28;1433;-67
2021/05/25 07:32:53;;;;;;;;;;;17.20;89.90;;;;;;2088026;28;1119;-65
2021/05/25 07:34:12;;;;;;;;;;;17.20;89.40;;;;;;2090815;28;1334;-67
2021/05/25 07:35:31;;;;;;;;;;;17.20;89.30;;;;;;2095520;28;1150;-66
2021/05/25 07:36:50;;;;;;;;;;;17.20;89.50;;;;;;2093145;28;1301;-66
2021/05/25 07:38:10;;;;;;;;;;;17.20;89.30;;;;;;2091309;28;1199;-69
2021/05/25 07:39:29;;;;;;;;;;;17.30;89.30;;;;;;2091505;28;1092;-66
2021/05/25 07:40:48;;;;;;;;;;;17.30;89.00;;;;;;2092339;28;1542;-68
2021/05/25 07:42:08;;;;;;;;;;;17.30;89.30;;;;;;2091073;28;1707;-67
2021/05/25 07:43:29;;;;;;;;;;;17.30;89.30;;;;;;2088940;28;1911;-66
2021/05/25 07:44:48;;;;;;;;;;;17.30;89.20;;;;;;2090718;28;1481;-66
2021/05/25 07:46:07;;;;;;;;;;;17.30;89.50;;;;;;2088225;28;1133;-67
2021/05/25 07:47:27;;;;;;;;;;;17.30;89.60;;;;;;2091818;28;1615;-66
2021/05/25 07:48:46;;;;;;;;;;;17.30;89.80;;;;;;2091758;28;1204;-66
2021/05/25 07:50:13;;;;;;;;;;;17.30;90.30;;;;;;2091451;28;1577;-68
2021/05/25 07:51:32;;;;;;;;;;;17.30;90.20;;;;;;2089049;28;1491;-68
2021/05/25 07:52:52;;;;;;;;;;;17.30;90.20;;;;;;2092507;28;1733;-66
2021/05/25 07:54:11;;;;;;;;;;;17.30;90.30;;;;;;2094338;28;1036;-66
2021/05/25 07:55:31;;;;;;;;;;;17.30;90.50;;;;;;2091216;28;1197;-65